createdAt,value
2018-02-22T00:02:06.762Z,81.87
2018-02-22T00:04:37.418Z,87.28
2018-02-22T00:07:08.010Z,93.45
2018-02-22T00:09:38.311Z,90.68
2018-02-22T00:12:08.710Z,100.57
2018-02-22T00:14:39.962Z,95.15
2018-02-22T00:17:11.096Z,94.35
2018-02-22T00:19:42.037Z,92.82
2018-02-22T00:22:19.132Z,86.72
2018-02-22T00:24:49.613Z,80.62
2018-02-22T00:27:20.296Z,78.90
2018-02-22T00:29:50.624Z,78.93
2018-02-22T00:32:21.717Z,70.63
2018-02-22T00:34:52.025Z,68.70
2018-02-22T00:37:22.334Z,64.62
2018-02-22T00:39:53.113Z,71.63
2018-02-22T00:42:23.438Z,73.50
2018-02-22T00:44:53.766Z,81.45
2018-02-22T00:47:24.126Z,84.40
2018-02-22T00:49:55.294Z,89.80
2018-02-22T00:52:25.933Z,86.37
2018-02-22T00:54:56.287Z,87.43
2018-02-22T00:57:27.360Z,83.67
2018-02-22T00:59:57.667Z,86.05
2018-02-22T01:02:28.970Z,81.10
2018-02-22T01:04:59.501Z,74.82
2018-02-22T01:07:29.822Z,79.27
2018-02-22T01:10:00.749Z,76.20
2018-02-22T01:12:31.162Z,77.70
2018-02-22T01:15:01.460Z,81.80
2018-02-22T01:17:32.051Z,74.07
2018-02-22T01:20:02.399Z,76.87
2018-02-22T01:22:32.710Z,79.00
2018-02-22T01:25:03.407Z,74.13
2018-02-22T01:27:35.177Z,81.55
2018-02-22T01:30:05.497Z,79.23
2018-02-22T01:32:36.643Z,79.62
2018-02-22T01:35:06.959Z,75.67
2018-02-22T01:37:37.546Z,72.60
2018-02-22T01:40:07.926Z,71.90
2018-02-22T01:42:38.223Z,77.17
2018-02-22T01:45:08.540Z,79.43
2018-02-22T01:47:38.878Z,76.80
2018-02-22T01:50:09.528Z,75.47
2018-02-22T01:52:39.852Z,83.00
2018-02-22T01:55:10.170Z,74.93
2018-02-22T01:57:40.456Z,77.47
2018-02-22T02:00:10.922Z,71.25
2018-02-22T02:02:41.150Z,68.10
2018-02-22T02:05:11.486Z,70.20
2018-02-22T02:07:42.801Z,70.50
2018-02-22T02:10:13.098Z,67.60
2018-02-22T02:12:43.402Z,75.33
2018-02-22T02:15:13.838Z,64.33
2018-02-22T02:17:44.166Z,62.83
2018-02-22T02:20:14.469Z,70.83
2018-02-22T02:22:45.205Z,64.40
2018-02-22T02:25:15.527Z,73.80
2018-02-22T02:27:49.914Z,83.53
2018-02-22T02:30:20.595Z,91.78
2018-02-22T02:32:51.731Z,88.07
2018-02-22T02:35:22.047Z,80.47
2018-02-22T02:37:52.459Z,82.73
2018-02-22T02:40:22.914Z,78.70
2018-02-22T02:42:53.459Z,80.00
2018-02-22T02:45:23.782Z,75.83
2018-02-22T02:47:54.114Z,77.47
2018-02-22T02:50:25.755Z,75.77
2018-02-22T02:52:56.321Z,75.30
2018-02-22T02:55:27.419Z,65.03
2018-02-22T02:57:57.746Z,66.73
2018-02-22T03:00:28.451Z,68.57
2018-02-22T03:02:58.742Z,69.37
2018-02-22T03:05:29.964Z,74.63
2018-02-22T03:08:00.276Z,80.10
2018-02-22T03:10:30.613Z,81.33
2018-02-22T03:13:01.661Z,87.50
2018-02-22T03:15:32.077Z,87.77
2018-02-22T03:18:02.408Z,85.63
2018-02-22T03:20:32.920Z,89.53
2018-02-22T03:23:03.206Z,88.73
2018-02-22T03:25:33.489Z,78.20
2018-02-22T03:28:04.049Z,85.70
2018-02-22T03:30:34.329Z,90.07
2018-02-22T03:33:04.621Z,84.60
2018-02-22T03:35:35.161Z,80.23
2018-02-22T03:38:06.300Z,86.27
2018-02-22T03:40:36.564Z,88.73
2018-02-22T03:43:06.916Z,82.67
2018-02-22T03:45:37.723Z,87.93
2018-02-22T03:48:08.729Z,93.97
2018-02-22T03:50:39.009Z,90.67
2018-02-22T03:53:09.325Z,89.67
2018-02-22T03:55:39.597Z,79.87
2018-02-22T03:58:09.883Z,92.97
2018-02-22T04:00:40.505Z,89.07
2018-02-22T04:03:10.988Z,83.13
2018-02-22T04:05:41.305Z,82.97
2018-02-22T04:08:11.929Z,84.83
2018-02-22T04:10:42.269Z,91.23
2018-02-22T04:13:12.548Z,92.83
2018-02-22T04:15:44.374Z,86.67
2018-02-22T04:18:14.716Z,84.43
2018-02-22T04:20:45.055Z,82.37
2018-02-22T04:23:16.208Z,77.97
2018-02-22T04:25:46.480Z,87.73
2018-02-22T04:28:16.760Z,86.70
2018-02-22T04:30:47.517Z,84.47
2018-02-22T04:33:18.550Z,87.43
2018-02-22T04:35:48.981Z,81.33
2018-02-22T04:38:19.557Z,87.70
2018-02-22T04:40:49.841Z,74.03
2018-02-22T04:43:20.843Z,80.23
2018-02-22T04:45:52.145Z,79.07
2018-02-22T04:48:22.405Z,84.60
2018-02-22T04:50:52.641Z,88.20
2018-02-22T04:53:23.201Z,83.77
2018-02-22T04:55:54.507Z,77.43
2018-02-22T04:58:26.188Z,86.47
2018-02-22T05:00:56.674Z,82.63
2018-02-22T05:03:27.105Z,80.60
2018-02-22T05:05:57.592Z,77.23
2018-02-22T05:08:27.904Z,84.77
2018-02-22T05:10:58.261Z,84.93
2018-02-22T05:13:28.786Z,79.53
2018-02-22T05:15:59.052Z,77.97
2018-02-22T05:18:29.979Z,81.63
2018-02-22T05:21:00.384Z,78.50
2018-02-22T05:23:31.501Z,75.83
2018-02-22T05:26:02.228Z,77.50
2018-02-22T05:28:32.780Z,80.27
2018-02-22T05:31:03.033Z,77.97
2018-02-22T05:33:34.738Z,75.57
2018-02-22T05:36:05.009Z,78.57
2018-02-22T05:38:35.529Z,73.47
2018-02-22T05:41:06.042Z,73.70
2018-02-22T05:43:36.373Z,69.63
2018-02-22T05:46:06.758Z,91.33
2018-02-22T05:48:37.289Z,95.60
2018-02-22T05:51:07.569Z,87.43
2018-02-22T05:53:37.989Z,75.30
2018-02-22T05:56:08.377Z,79.13
2018-02-22T05:58:38.760Z,76.30
2018-02-22T06:01:09.870Z,71.27
2018-02-22T06:03:40.376Z,81.33
2018-02-22T06:06:10.829Z,81.43
2018-02-22T06:08:41.127Z,72.43
2018-02-22T06:11:11.696Z,76.43
2018-02-22T06:13:41.954Z,70.37
2018-02-22T06:16:12.490Z,73.77
2018-02-22T06:18:43.092Z,77.00
2018-02-22T06:21:15.362Z,77.37
2018-02-22T06:23:46.699Z,73.50
2018-02-22T06:26:17.716Z,79.80
2018-02-22T06:28:47.992Z,74.27
2018-02-22T06:31:18.813Z,77.23
2018-02-22T06:33:49.041Z,83.50
2018-02-22T06:36:19.288Z,77.80
2018-02-22T06:38:49.973Z,73.63
2018-02-22T06:41:20.986Z,71.23
2018-02-22T06:43:55.983Z,71.63
2018-02-22T06:46:26.921Z,67.20
2018-02-22T06:49:03.744Z,70.40
2018-02-22T06:51:35.630Z,71.23
2018-02-22T06:54:06.357Z,71.63
2018-02-22T06:56:42.574Z,71.93
2018-02-22T06:59:13.669Z,71.73
2018-02-22T07:01:44.177Z,71.67
2018-02-22T07:04:15.067Z,70.43
2018-02-22T07:06:46.054Z,71.90
2018-02-22T07:09:17.902Z,75.43
2018-02-22T07:11:51.273Z,74.43
2018-02-22T07:14:25.158Z,71.07
2018-02-22T07:17:02.710Z,68.93
2018-02-22T07:19:36.310Z,71.13
2018-02-22T07:22:07.741Z,68.20
2018-02-22T07:24:42.059Z,66.30
2018-02-22T07:27:14.868Z,67.67
2018-02-22T07:29:45.855Z,69.53
2018-02-22T07:32:21.944Z,63.83
2018-02-22T07:34:59.403Z,66.23
2018-02-22T07:37:37.554Z,69.33
2018-02-22T07:40:21.338Z,59.03
2018-02-22T07:42:53.839Z,64.23
2018-02-22T07:45:25.635Z,62.80
2018-02-22T07:48:00.795Z,61.10
2018-02-22T07:50:32.493Z,66.30
2018-02-22T07:56:00.242Z,59.60
2018-02-22T07:58:37.799Z,62.70
2018-02-22T08:01:09.168Z,64.63
2018-02-22T08:03:39.952Z,60.07
2018-02-22T08:06:11.786Z,60.70
2018-02-22T08:08:42.082Z,61.03
2018-02-22T08:11:14.255Z,62.53
2018-02-22T08:13:45.304Z,57.10
2018-02-22T08:16:15.686Z,49.20
2018-02-22T08:18:46.331Z,58.80
2018-02-22T08:21:18.835Z,58.37
2018-02-22T08:23:51.099Z,58.67
2018-02-22T08:26:22.658Z,55.53
2018-02-22T08:28:53.015Z,52.60
2018-02-22T08:31:25.346Z,53.40
2018-02-22T08:33:58.884Z,51.77
2018-02-22T08:36:31.143Z,54.37
2018-02-22T08:39:01.457Z,51.53
2018-02-22T08:41:32.206Z,55.33
2018-02-22T08:44:02.694Z,49.87
2018-02-22T08:46:33.022Z,48.73
2018-02-22T08:49:04.154Z,52.27
2018-02-22T08:51:34.486Z,51.33
2018-02-22T08:54:04.846Z,48.50
2018-02-22T08:56:35.447Z,49.67
2018-02-22T08:59:05.797Z,45.50
2018-02-22T09:01:36.078Z,54.53
2018-02-22T09:04:06.936Z,51.83
2018-02-22T09:06:37.544Z,50.40
2018-02-22T09:09:08.175Z,51.73
2018-02-22T09:11:38.502Z,53.23
2018-02-22T09:14:09.076Z,59.77
2018-02-22T09:16:40.754Z,52.70
2018-02-22T09:19:11.112Z,53.80
2018-02-22T09:21:41.800Z,52.17
2018-02-22T09:24:13.007Z,49.80
2018-02-22T09:26:43.342Z,47.77
2018-02-22T09:30:33.103Z,56.03
2018-02-22T09:33:04.254Z,45.77
2018-02-22T09:35:34.883Z,43.07
2018-02-22T09:38:05.954Z,46.83
2018-02-22T09:40:37.009Z,40.50
2018-02-22T09:43:08.539Z,42.83
2018-02-22T09:45:38.853Z,40.67
2018-02-22T09:48:09.223Z,39.50
2018-02-22T09:50:39.776Z,40.20
2018-02-22T09:53:10.064Z,39.17
2018-02-22T09:55:40.410Z,37.33
2018-02-22T09:58:11.037Z,40.90
2018-02-22T10:00:42.354Z,44.67
2018-02-22T10:03:12.703Z,38.20
2018-02-22T10:05:43.949Z,42.50
2018-02-22T10:08:14.467Z,40.93
2018-02-22T10:10:44.914Z,36.83
2018-02-22T10:13:15.493Z,36.87
2018-02-22T10:15:46.588Z,37.80
2018-02-22T10:18:16.924Z,36.40
2018-02-22T10:20:47.366Z,31.50
2018-02-22T10:23:17.678Z,37.17
2018-02-22T10:25:48.013Z,34.07
2018-02-22T10:28:19.970Z,34.70
2018-02-22T10:30:51.353Z,33.70
2018-02-22T10:33:22.045Z,33.27
2018-02-22T10:35:52.350Z,31.63
2018-02-22T10:38:22.630Z,31.20
2018-02-22T10:40:52.958Z,35.23
2018-02-22T10:43:23.235Z,33.03
2018-02-22T10:45:53.761Z,29.80
2018-02-22T10:48:24.334Z,29.23
2018-02-22T10:50:54.682Z,29.80
2018-02-22T10:53:25.116Z,30.27
2018-02-22T10:55:55.433Z,28.77
2018-02-22T10:58:27.057Z,18.90
2018-02-22T11:01:01.454Z,20.90
2018-02-22T11:03:31.770Z,27.90
2018-02-22T11:06:02.137Z,24.07
2018-02-22T11:08:32.441Z,24.17
2018-02-22T11:11:03.782Z,25.57
2018-02-22T11:13:34.944Z,26.30
2018-02-22T11:16:05.298Z,27.87
2018-02-22T11:18:35.937Z,26.23
2018-02-22T11:21:06.314Z,30.73
2018-02-22T11:23:36.651Z,29.67
2018-02-22T11:26:07.268Z,32.50
2018-02-22T11:28:38.548Z,28.73
2018-02-22T11:31:08.992Z,32.93
2018-02-22T11:33:39.344Z,27.87
2018-02-22T11:36:09.694Z,29.07
2018-02-22T11:38:40.271Z,28.77
2018-02-22T11:41:10.596Z,31.37
2018-02-22T11:43:40.889Z,28.57
2018-02-22T11:46:11.498Z,27.83
2018-02-22T11:48:41.868Z,30.97
2018-02-22T11:51:13.116Z,27.93
2018-02-22T11:53:43.458Z,26.40
2018-02-22T11:56:13.835Z,27.10
2018-02-22T11:58:44.313Z,30.70
2018-02-22T12:01:14.916Z,30.83
2018-02-22T12:03:46.158Z,27.37
2018-02-22T12:06:27.070Z,27.97
2018-02-22T12:08:58.746Z,27.40
2018-02-22T12:11:29.139Z,33.37
2018-02-22T12:13:59.690Z,31.20
2018-02-22T12:16:31.199Z,26.03
2018-02-22T12:19:01.586Z,32.53
2018-02-22T12:21:32.859Z,33.57
2018-02-22T12:24:03.483Z,26.13
2018-02-22T12:26:34.344Z,27.37
2018-02-22T12:29:04.689Z,29.10
2018-02-22T12:31:34.999Z,29.93
2018-02-22T12:34:05.549Z,26.73
2018-02-22T12:36:35.942Z,31.63
2018-02-22T12:39:06.438Z,28.67
2018-02-22T12:41:37.003Z,29.23
2018-02-22T12:44:08.298Z,25.40
2018-02-22T12:46:38.653Z,25.73
2018-02-22T12:49:09.294Z,26.73
2018-02-22T12:51:39.809Z,23.90
2018-02-22T12:54:10.219Z,26.70
2018-02-22T12:56:40.830Z,25.60
2018-02-22T12:59:11.727Z,32.90
2018-02-22T13:01:42.111Z,26.17
2018-02-22T13:04:12.481Z,28.97
2018-02-22T13:06:42.941Z,25.93
2018-02-22T13:09:13.835Z,25.93
2018-02-22T13:11:44.758Z,29.70
2018-02-22T13:14:15.135Z,27.27
2018-02-22T13:16:45.771Z,28.73
2018-02-22T13:19:16.178Z,23.47
2018-02-22T13:21:47.403Z,32.30
2018-02-22T13:24:17.864Z,26.37
2018-02-22T13:26:48.333Z,26.83
2018-02-22T13:29:19.463Z,25.57
2018-02-22T13:31:50.316Z,26.57
2018-02-22T13:34:30.466Z,25.63
2018-02-22T13:37:01.432Z,24.30
2018-02-22T13:39:31.737Z,26.77
2018-02-22T13:42:02.074Z,27.17
2018-02-22T13:45:45.462Z,27.77
2018-02-22T13:48:15.838Z,29.57
2018-02-22T13:51:08.530Z,32.07
2018-02-22T13:53:39.969Z,32.67
2018-02-22T13:56:15.948Z,31.43
2018-02-22T13:58:47.002Z,35.03
2018-02-22T14:02:25.339Z,28.03
2018-02-22T14:04:56.563Z,30.47
2018-02-22T14:07:28.051Z,32.67
2018-02-22T14:09:58.445Z,32.93
2018-02-22T14:12:28.814Z,32.70
2018-02-22T14:14:59.442Z,36.43
2018-02-22T14:17:29.802Z,30.63
2018-02-22T14:20:00.086Z,31.53
2018-02-22T14:22:30.469Z,34.13
2018-02-22T14:25:00.805Z,31.97
2018-02-22T14:27:31.142Z,40.70
2018-02-22T14:30:02.279Z,37.40
2018-02-22T14:32:32.581Z,37.60
2018-02-22T14:35:03.190Z,40.23
2018-02-22T14:37:33.512Z,36.27
2018-02-22T14:40:03.966Z,38.70
2018-02-22T14:42:35.390Z,36.97
2018-02-22T14:45:05.751Z,38.63
2018-02-22T14:47:36.070Z,57.30
2018-02-22T14:50:06.760Z,41.90
2018-02-22T14:52:37.144Z,37.07
2018-02-22T14:55:07.530Z,38.80
2018-02-22T14:57:39.007Z,36.93
2018-02-22T15:00:10.085Z,38.13
2018-02-22T15:02:40.597Z,42.07
2018-02-22T15:05:11.494Z,35.17
2018-02-22T15:07:41.885Z,40.50
2018-02-22T15:10:12.550Z,37.63
2018-02-22T15:12:43.267Z,40.33
2018-02-22T15:15:13.567Z,39.30
2018-02-22T15:17:44.002Z,38.83
2018-02-22T15:20:15.218Z,41.83
2018-02-22T15:22:46.459Z,34.80
2018-02-22T15:25:17.936Z,37.20
2018-02-22T15:27:48.710Z,33.87
2018-02-22T15:30:19.542Z,34.07
2018-02-22T15:32:51.147Z,36.50
2018-02-22T15:35:26.258Z,36.50
2018-02-22T15:37:58.119Z,32.43
2018-02-22T15:40:30.808Z,36.83
2018-02-22T15:43:01.279Z,39.13
2018-02-22T15:45:31.685Z,35.23
2018-02-22T15:48:03.133Z,38.70
2018-02-22T15:50:37.033Z,39.37
2018-02-22T15:53:07.672Z,43.80
